createdAt,value
2022-10-18T00:07:02.106Z,35.05
2022-10-18T00:27:02.595Z,35.06
2022-10-18T02:27:02.450Z,35.06
2022-10-18T02:47:02.429Z,35.06
2022-10-18T03:07:02.299Z,35.06
2022-10-18T04:47:02.279Z,35.07
2022-10-18T05:47:02.206Z,35.07
2022-10-18T06:27:02.170Z,35.08
2022-10-18T06:47:02.129Z,35.08
2022-10-18T07:07:01.574Z,35.07
2022-10-18T07:27:01.356Z,35.08
2022-10-18T07:47:01.278Z,35.08
2022-10-18T08:07:02.024Z,35.08
2022-10-18T08:27:01.987Z,35.08
2022-10-18T08:47:01.970Z,35.09
2022-10-18T09:07:01.956Z,35.08
2022-10-18T09:27:01.924Z,35.08
2022-10-18T09:47:01.110Z,35.08
2022-10-18T10:07:01.878Z,35.08
2022-10-18T10:27:01.832Z,35.08
2022-10-18T10:47:01.798Z,35.08
2022-10-18T11:07:01.764Z,35.08
2022-10-18T11:27:01.734Z,35.07
2022-10-18T11:47:01.717Z,35.07
2022-10-18T12:07:01.682Z,35.07
2022-10-18T12:27:01.648Z,35.07
2022-10-18T13:27:17.389Z,35.05
2022-10-18T13:47:01.544Z,35.05
2022-10-18T14:07:02.459Z,35.04
2022-10-18T14:27:01.477Z,35.04
2022-10-18T14:47:00.914Z,35.04
2022-10-18T15:07:00.877Z,35.04
2022-10-18T15:47:01.338Z,35.03
2022-10-18T16:07:01.310Z,35.03
2022-10-18T16:27:01.272Z,35.02
2022-10-18T16:47:01.261Z,35.03
2022-10-18T17:07:00.458Z,35.02
2022-10-18T17:27:01.249Z,35.02
2022-10-18T17:47:01.055Z,35.02
2022-10-18T18:07:01.162Z,35.02
2022-10-18T18:27:00.615Z,35.02
2022-10-18T19:07:01.127Z,35.02
2022-10-18T19:27:01.100Z,35.02
2022-10-18T20:07:01.066Z,35.02
2022-10-18T20:27:01.049Z,35.02
2022-10-18T21:07:01.048Z,35.02
2022-10-18T21:27:01.007Z,35.02
2022-10-18T21:47:00.997Z,35.02
2022-10-18T22:07:00.454Z,35.03
2022-10-18T22:27:00.981Z,35.03
2022-10-18T22:47:00.952Z,35.03
2022-10-18T23:07:00.176Z,35.03
2022-10-18T23:47:00.795Z,35.03
